KAUO

Auburn University Regional Airport

Auburn, Alabama, USA
METAR KAUO 100656Z AUTO 31006KT 10SM OVC003 04/03 A3005 RMK AO2 RAB10E21 SLP202 P0000 T00390033
Observed Flight Rules
Dec-10 @ 06:56 UTC (10 minutes ago) Instrument Flight Rules
Wind Visibility Clouds
310° at 6 knots 10 miles
  • Overcast at 300' AGL
Temperatures Readings Precipitation
Current 4°C / 39°F
Dewpoint 3°C / 37°F
Humidity 93%
Altimeter 30.05" Hg
Pressure 1020.2 hPa
Elevation 236
Current Rain 0.005
METAR KAUO 100656Z AUTO 31006KT 10SM OVC003 04/03 A3005 RMK AO2 RAB10E21 SLP202 P0000 T00390033
Observed Flight Rules
Dec-10 @ 06:56 UTC
(10 minutes ago)
LIFR
Wind Visibility
310° at 6 knots 10 miles
Clouds
  • Overcast at 300' AGL
Temperature Dewpoint
4°C / 39°F 3°C / 37°F
Humidity Altimeter Pressure
93% 30.05" Hg 1020.2 hPa
Current Rain
0.005